Time;durP1;ratioP1;P1;durP2;ratioP2;P2;SDS_P1;SDS_P2;PMS_P1;PMS_P2;Temp;Humidity;BMP_temperature;BMP_pressure;BME280_temperature;BME280_humidity;BME280_pressure;Samples;Min_cycle;Max_cycle;Signal;HPM_P1;HPM_P2
2023/04/30 00:01:03;;;;;;;;;22.75;20.50;;;;;15.08;49.23;101588.63;5033122;28;45439;-67
2023/04/30 00:03:28;;;;;;;;;27.50;22.75;;;;;15.04;49.14;101581.66;5028824;28;45325;-67
2023/04/30 00:05:53;;;;;;;;;31.00;25.50;;;;;15.03;48.86;101588.72;5020984;28;45289;-67
2023/04/30 00:08:18;;;;;;;;;32.00;25.00;;;;;14.98;48.88;101576.47;5021236;28;45364;-67
2023/04/30 00:10:44;;;;;;;;;24.50;22.50;;;;;14.99;48.99;101587.03;5021172;28;45381;-67
2023/04/30 00:13:09;;;;;;;;;28.75;26.50;;;;;14.98;49.32;101589.72;5021154;28;45484;-67
2023/04/30 00:15:35;;;;;;;;;26.75;24.00;;;;;14.92;49.21;101590.72;5020872;28;45229;-67
2023/04/30 00:18:01;;;;;;;;;25.25;24.00;;;;;14.93;49.23;101588.03;5021100;28;45405;-67
2023/04/30 00:20:27;;;;;;;;;25.25;24.00;;;;;14.90;49.24;101579.28;5021020;28;45380;-67
2023/04/30 00:22:52;;;;;;;;;25.00;22.50;;;;;14.87;49.40;101569.63;5021082;28;45250;-67
2023/04/30 00:25:17;;;;;;;;;30.75;28.50;;;;;14.87;49.01;101574.06;5019066;28;47156;-67
2023/04/30 00:27:43;;;;;;;;;26.25;25.25;;;;;14.87;49.12;101566.13;5020859;28;45546;-67
2023/04/30 00:30:08;;;;;;;;;24.75;23.25;;;;;14.85;49.56;101567.91;5021063;28;45515;-67
2023/04/30 00:32:33;;;;;;;;;33.25;29.75;;;;;14.81;49.42;101569.72;5020794;28;45356;-67
2023/04/30 00:34:59;;;;;;;;;36.00;29.50;;;;;14.79;49.25;101567.13;5020474;28;45268;-67
2023/04/30 00:37:24;;;;;;;;;31.50;27.25;;;;;14.75;49.63;101559.25;5020925;28;45429;-67
2023/04/30 00:39:50;;;;;;;;;37.75;31.50;;;;;14.71;49.23;101561.09;5020758;28;45420;-67
2023/04/30 00:42:15;;;;;;;;;35.25;30.00;;;;;14.67;49.09;101558.56;5003162;28;45330;-67
2023/04/30 00:44:40;;;;;;;;;33.25;29.50;;;;;14.62;49.29;101550.66;5022559;28;48814;-67
2023/04/30 00:47:05;;;;;;;;;27.75;27.25;;;;;14.64;49.25;101559.44;5026132;28;45407;-67
2023/04/30 00:49:31;;;;;;;;;31.00;28.75;;;;;14.57;49.25;101542.78;5051609;28;45347;-67
2023/04/30 00:51:56;;;;;;;;;31.00;26.00;;;;;14.58;49.28;101554.25;5037284;28;45585;-67
2023/04/30 00:54:23;;;;;;;;;27.25;27.25;;;;;14.52;49.29;101552.59;5022698;28;45223;-67
2023/04/30 00:56:48;;;;;;;;;29.00;26.00;;;;;14.49;49.29;101544.72;5030047;28;45649;-67
2023/04/30 00:59:14;;;;;;;;;30.25;30.00;;;;;14.49;49.53;101550.00;5030753;28;45501;-67
2023/04/30 01:01:40;;;;;;;;;30.25;28.25;;;;;14.46;49.93;101555.34;5046967;28;45264;-67
2023/04/30 01:04:05;;;;;;;;;30.25;27.50;;;;;14.42;49.48;101540.44;5024797;28;45400;-67
2023/04/30 01:06:31;;;;;;;;;35.50;26.75;;;;;14.40;49.51;101547.50;5020379;28;45476;-67
2023/04/30 01:08:57;;;;;;;;;29.00;26.00;;;;;14.39;49.83;101548.41;5020373;28;45357;-67
2023/04/30 01:11:46;;;;;;;;;33.75;28.75;;;;;14.33;49.67;101540.59;5020245;28;45445;-67
2023/04/30 01:14:29;;;;;;;;;29.00;28.25;;;;;14.34;49.36;101542.31;5034538;28;48480;-67
2023/04/30 01:17:07;;;;;;;;;29.75;24.75;;;;;14.30;49.48;101539.75;5008342;28;45343;-67
2023/04/30 01:19:44;;;;;;;;;29.00;28.50;;;;;14.29;49.41;101542.41;5020102;28;45192;-67
2023/04/30 01:22:34;;;;;;;;;30.75;25.75;;;;;14.26;49.72;101535.41;5020245;28;45230;-67
2023/04/30 01:25:42;;;;;;;;;29.50;26.50;;;;;14.23;49.61;101534.59;5018505;28;47615;-67
2023/04/30 01:28:15;;;;;;;;;27.75;24.50;;;;;14.20;49.67;101524.06;5050176;28;45249;-67
2023/04/30 01:30:43;;;;;;;;;30.25;27.75;;;;;14.16;49.78;101530.31;5020203;28;45345;-67
2023/04/30 01:33:09;;;;;;;;;31.00;25.00;;;;;14.11;49.62;101523.31;5019298;28;45472;-67
2023/04/30 01:35:53;;;;;;;;;30.75;26.50;;;;;14.13;50.04;101525.94;5019792;28;45323;-67
2023/04/30 01:38:19;;;;;;;;;31.50;27.25;;;;;14.11;50.08;101530.38;5019949;28;45425;-67
2023/04/30 01:40:56;;;;;;;;;34.50;29.00;;;;;14.05;49.77;101531.34;5019736;28;45313;-67
2023/04/30 01:43:41;;;;;;;;;26.25;24.75;;;;;14.07;50.11;101528.69;5002116;28;45430;-67
2023/04/30 01:46:29;;;;;;;;;28.00;26.25;;;;;14.05;50.23;101522.53;5019672;28;45479;-67
2023/04/30 01:49:29;;;;;;;;;32.75;28.00;;;;;14.02;49.98;101519.94;5001126;28;46125;-67
2023/04/30 01:52:19;;;;;;;;;30.50;24.50;;;;;14.01;49.85;101528.78;5030633;28;45415;-67
2023/04/30 01:54:52;;;;;;;;;26.00;25.00;;;;;13.98;49.88;101524.41;5010054;28;45480;-67
2023/04/30 01:57:28;;;;;;;;;29.50;28.00;;;;;13.96;50.41;101529.72;5019645;28;45340;-67
2023/04/30 01:59:54;;;;;;;;;28.50;26.75;;;;;13.96;50.48;101531.47;5028658;28;45487;-67
2023/04/30 02:02:19;;;;;;;;;29.25;24.50;;;;;13.93;50.42;101529.75;5018261;28;45484;-67
2023/04/30 02:04:44;;;;;;;;;31.25;27.75;;;;;13.92;50.21;101533.31;5001772;28;45665;-67
2023/04/30 02:07:11;;;;;;;;;29.75;25.00;;;;;13.89;50.40;101525.44;5019370;28;46944;-67
2023/04/30 02:09:36;;;;;;;;;28.50;26.50;;;;;13.90;50.03;101536.84;5019598;28;45405;-67
2023/04/30 02:12:02;;;;;;;;;28.50;26.00;;;;;13.89;50.10;101532.50;5020831;28;45385;-67
2023/04/30 02:14:30;;;;;;;;;32.75;27.25;;;;;13.83;50.22;101528.16;5023221;28;45254;-67
2023/04/30 02:16:56;;;;;;;;;28.50;25.25;;;;;13.82;50.33;101529.94;5023000;28;45415;-66
2023/04/30 02:19:21;;;;;;;;;34.50;28.25;;;;;13.82;50.51;101532.59;5022770;28;45409;-67
2023/04/30 02:21:46;;;;;;;;;32.25;25.25;;;;;13.80;49.96;101539.66;5049468;28;45321;-67
2023/04/30 02:24:11;;;;;;;;;24.50;21.00;;;;;13.81;50.31;101538.75;5022925;28;47102;-67
2023/04/30 02:26:37;;;;;;;;;31.25;26.75;;;;;13.80;50.16;101542.28;5021059;28;46898;-67
2023/04/30 02:29:02;;;;;;;;;28.50;26.25;;;;;13.79;50.27;101534.41;5022823;28;45376;-67
2023/04/30 02:31:27;;;;;;;;;27.25;25.25;;;;;13.73;50.23;101524.78;5022818;28;45379;-67
2023/04/30 02:33:53;;;;;;;;;26.00;24.00;;;;;13.74;50.44;101528.31;5022657;28;45254;-67
2023/04/30 02:36:18;;;;;;;;;29.25;23.50;;;;;13.71;50.26;101534.50;5022450;28;46835;-67
2023/04/30 02:38:44;;;;;;;;;28.25;26.50;;;;;13.70;50.45;101530.13;5022631;28;46843;-67
2023/04/30 02:41:09;;;;;;;;;29.50;26.25;;;;;13.69;50.45;101536.28;5022583;28;45326;-67
2023/04/30 02:43:34;;;;;;;;;31.75;29.00;;;;;13.66;50.07;101533.72;5022735;28;45227;-67
2023/04/30 02:45:59;;;;;;;;;27.25;25.25;;;;;13.67;50.73;101539.84;5004576;28;46796;-67
2023/04/30 02:48:25;;;;;;;;;28.00;25.25;;;;;13.65;50.41;101534.59;5004780;28;47952;-67
2023/04/30 02:50:50;;;;;;;;;24.25;21.00;;;;;13.56;50.35;101525.03;5024001;28;51577;-67
2023/04/30 02:53:15;;;;;;;;;25.25;23.25;;;;;13.61;50.48;101538.16;5016195;28;47036;-67
2023/04/30 02:55:41;;;;;;;;;25.25;22.75;;;;;13.60;50.54;101536.44;5022056;28;47009;-67
2023/04/30 02:58:06;;;;;;;;;24.50;21.75;;;;;13.58;50.56;101541.72;5012459;28;45457;-67
2023/04/30 03:00:31;;;;;;;;;23.25;22.00;;;;;13.60;50.74;101536.44;5034754;28;45334;-67
2023/04/30 03:02:57;;;;;;;;;27.25;25.00;;;;;13.59;50.59;101532.03;5034027;28;45429;-67
2023/04/30 03:05:22;;;;;;;;;26.00;23.00;;;;;13.57;50.69;101528.53;5004211;28;47117;-67
2023/04/30 03:07:48;;;;;;;;;27.25;24.50;;;;;13.56;50.63;101529.44;5022454;28;45211;-67
2023/04/30 03:10:13;;;;;;;;;27.25;25.75;;;;;13.52;50.45;101523.34;5022214;28;45484;-67
2023/04/30 03:12:38;;;;;;;;;25.25;25.00;;;;;13.54;50.72;101531.25;5022388;28;45254;-67
2023/04/30 03:15:04;;;;;;;;;28.25;24.50;;;;;13.54;50.53;101533.88;5004383;28;45359;-66
2023/04/30 03:17:29;;;;;;;;;33.00;24.50;;;;;13.48;50.58;101524.25;5022295;28;45226;-67
2023/04/30 03:19:55;;;;;;;;;23.75;21.75;;;;;13.48;50.85;101521.63;5021977;28;45365;-67
2023/04/30 03:22:22;;;;;;;;;30.00;24.00;;;;;13.48;50.62;101519.88;5021984;28;45393;-66
2023/04/30 03:24:48;;;;;;;;;27.25;23.50;;;;;13.49;50.55;101523.38;5020625;28;45365;-67
2023/04/30 03:27:15;;;;;;;;;28.25;23.00;;;;;13.47;50.86;101520.75;5021761;28;45381;-66
2023/04/30 03:29:41;;;;;;;;;27.00;25.00;;;;;13.47;50.56;101527.78;5022079;28;45231;-67
2023/04/30 03:32:06;;;;;;;;;30.25;27.00;;;;;13.46;50.72;101521.66;5003909;28;45496;-67
2023/04/30 03:34:31;;;;;;;;;24.75;23.75;;;;;13.46;50.85;101531.34;5021459;28;45238;-66
2023/04/30 03:36:57;;;;;;;;;26.75;23.75;;;;;13.42;50.65;101521.69;5003360;28;62195;-65
2023/04/30 03:39:22;;;;;;;;;28.50;22.25;;;;;13.41;50.70;101526.13;5021732;28;45579;-66
2023/04/30 03:41:47;;;;;;;;;26.25;23.00;;;;;13.43;50.89;101526.09;5021963;28;45458;-65
2023/04/30 03:44:14;;;;;;;;;33.00;30.00;;;;;13.39;50.95;101513.84;5003734;28;47311;-66
2023/04/30 03:46:43;;;;;;;;;29.50;25.50;;;;;13.39;50.93;101519.97;5021809;28;45237;-66
2023/04/30 03:49:12;;;;;;;;;33.00;29.25;;;;;13.36;51.14;101516.47;5003626;28;45484;-66
2023/04/30 03:51:40;;;;;;;;;25.75;22.50;;;;;13.38;51.08;101517.38;5030165;28;45231;-66
2023/04/30 03:54:06;;;;;;;;;28.25;26.00;;;;;13.37;50.79;101527.06;5041134;28;46084;-66
2023/04/30 03:56:36;;;;;;;;;27.25;25.50;;;;;13.32;50.94;101515.66;5015087;28;45431;-66
2023/04/30 03:59:10;;;;;;;;;27.25;27.25;;;;;13.35;50.93;101522.66;5013226;28;45266;-66
2023/04/30 04:01:36;;;;;;;;;27.25;23.50;;;;;13.33;50.82;101522.66;5036545;28;45242;-66
2023/04/30 04:04:01;;;;;;;;;27.00;23.75;;;;;13.31;51.04;101521.84;5006314;28;47395;-66
2023/04/30 04:06:27;;;;;;;;;26.50;24.75;;;;;13.26;50.74;101511.31;5021370;28;45148;-66
2023/04/30 04:08:52;;;;;;;;;26.50;24.00;;;;;13.28;51.26;101519.22;5003520;28;45464;-66
2023/04/30 04:11:17;;;;;;;;;29.25;23.75;;;;;13.23;50.99;101511.38;5021339;28;45384;-66
2023/04/30 04:13:42;;;;;;;;;24.00;22.75;;;;;13.22;51.04;101512.25;5028349;28;45365;-66
2023/04/30 04:16:08;;;;;;;;;25.25;22.25;;;;;13.22;50.96;101511.38;5040381;28;55482;-66
2023/04/30 04:18:33;;;;;;;;;22.50;22.50;;;;;13.15;50.78;101502.69;5021305;28;45286;-66
2023/04/30 04:21:00;;;;;;;;;31.00;27.25;;;;;13.22;51.12;101519.28;5021199;28;45269;-66
2023/04/30 04:23:25;;;;;;;;;26.25;25.75;;;;;13.19;50.78;101512.28;5020978;28;46048;-66
2023/04/30 04:25:51;;;;;;;;;25.50;21.00;;;;;13.15;51.19;101511.44;5020923;28;45350;-66
2023/04/30 04:28:17;;;;;;;;;31.50;28.50;;;;;13.17;51.16;101529.94;5021035;28;45358;-66
2023/04/30 04:30:42;;;;;;;;;31.00;27.50;;;;;13.15;51.23;101524.66;5003341;28;45410;-66
2023/04/30 04:33:09;;;;;;;;;31.25;27.00;;;;;13.11;50.93;101517.66;5020830;28;47213;-66
2023/04/30 04:35:35;;;;;;;;;25.00;22.50;;;;;13.13;51.15;101520.28;5020254;28;45389;-66
2023/04/30 04:38:00;;;;;;;;;27.50;27.00;;;;;13.10;51.18;101520.34;5029060;28;45426;-66
2023/04/30 04:40:25;;;;;;;;;27.75;25.00;;;;;13.11;51.11;101530.00;5038836;28;49588;-66
2023/04/30 04:42:52;;;;;;;;;37.25;29.50;;;;;13.06;51.10;101521.28;5020313;28;45551;-66
2023/04/30 04:45:19;;;;;;;;;44.50;36.25;;;;;13.07;51.63;101521.25;5020877;28;45860;-66
2023/04/30 04:47:45;;;;;;;;;37.25;32.00;;;;;13.05;51.28;101519.53;5020846;28;45393;-66
2023/04/30 04:50:11;;;;;;;;;28.25;28.25;;;;;13.06;51.35;101523.91;5002699;28;45412;-66
2023/04/30 04:52:36;;;;;;;;;29.00;24.00;;;;;13.05;51.33;101527.44;5034172;28;45930;-66
2023/04/30 04:55:02;;;;;;;;;26.00;24.75;;;;;13.04;51.36;101534.47;5020544;28;45368;-66
2023/04/30 04:57:27;;;;;;;;;33.25;29.00;;;;;12.99;51.49;101529.25;5020752;28;45457;-66
2023/04/30 04:59:52;;;;;;;;;28.25;24.25;;;;;13.03;51.36;101531.84;5029629;28;45633;-66
2023/04/30 05:02:18;;;;;;;;;22.50;20.25;;;;;12.97;51.30;101524.91;5037330;28;45594;-66
2023/04/30 05:04:45;;;;;;;;;28.00;25.75;;;;;13.00;51.67;101527.47;5020415;28;45273;-66
2023/04/30 05:07:11;;;;;;;;;30.75;27.00;;;;;12.98;50.61;101527.50;5003116;28;45365;-66
2023/04/30 05:09:36;;;;;;;;;31.50;27.50;;;;;12.97;51.29;101528.38;5020226;28;45306;-66
2023/04/30 05:12:02;;;;;;;;;30.25;28.00;;;;;13.00;51.36;101532.75;5020596;28;45230;-66
2023/04/30 05:14:28;;;;;;;;;33.50;28.25;;;;;12.97;51.42;101538.94;5020423;28;45437;-66
2023/04/30 05:16:53;;;;;;;;;29.50;25.00;;;;;12.97;51.76;101540.72;5020333;28;45211;-66
2023/04/30 05:19:18;;;;;;;;;32.25;30.00;;;;;12.96;51.46;101541.59;5019938;28;50298;-66
2023/04/30 05:21:44;;;;;;;;;28.50;24.50;;;;;12.94;51.52;101541.63;5020106;28;46027;-66
2023/04/30 05:24:09;;;;;;;;;34.25;32.00;;;;;12.97;51.68;101556.56;5002519;28;45285;-66
2023/04/30 05:26:34;;;;;;;;;28.25;27.00;;;;;12.93;51.86;101545.16;5019855;28;45315;-66
2023/04/30 05:29:00;;;;;;;;;54.25;42.00;;;;;12.93;51.45;101547.78;5020116;28;45458;-66
2023/04/30 05:31:25;;;;;;;;;32.25;31.00;;;;;12.94;51.52;101554.81;5026274;28;45543;-66
2023/04/30 05:33:50;;;;;;;;;34.50;30.00;;;;;12.92;51.55;101553.94;5039725;28;50548;-66
2023/04/30 05:36:15;;;;;;;;;31.25;30.25;;;;;12.95;51.86;101550.41;5019909;28;45368;-66
2023/04/30 05:38:41;;;;;;;;;30.50;29.25;;;;;12.93;51.76;101550.44;5019776;28;49442;-65
2023/04/30 05:41:08;;;;;;;;;38.25;31.25;;;;;12.93;51.78;101555.72;5019551;28;45357;-65
2023/04/30 05:43:34;;;;;;;;;37.50;30.00;;;;;12.95;51.65;101551.25;5019954;28;45622;-66
2023/04/30 05:45:59;;;;;;;;;35.50;32.25;;;;;12.95;51.72;101558.31;5019050;28;45310;-65
2023/04/30 05:48:25;;;;;;;;;35.25;30.75;;;;;12.92;52.01;101548.69;5019520;28;49571;-68
2023/04/30 05:50:50;;;;;;;;;38.75;30.25;;;;;12.95;52.26;101556.53;5021406;28;45530;-67
2023/04/30 05:53:15;;;;;;;;;32.25;30.00;;;;;12.97;51.92;101552.13;5031241;28;49446;-64
2023/04/30 05:55:41;;;;;;;;;40.25;31.75;;;;;13.02;52.08;101560.00;5019458;28;45690;-63
2023/04/30 05:58:06;;;;;;;;;39.25;32.50;;;;;13.04;51.87;101557.34;5023088;28;45246;-64
2023/04/30 06:00:31;;;;;;;;;31.75;30.25;;;;;12.99;52.17;101550.38;5030450;28;59648;-69
2023/04/30 06:02:57;;;;;;;;;34.25;30.50;;;;;13.06;51.88;101558.22;5031791;28;45202;-66
2023/04/30 06:05:22;;;;;;;;;39.75;33.00;;;;;13.06;52.13;101552.94;5019704;28;45469;-64
2023/04/30 06:07:47;;;;;;;;;36.50;31.00;;;;;13.08;51.94;101559.03;5019613;28;45306;-65
2023/04/30 06:10:13;;;;;;;;;34.75;30.25;;;;;13.11;52.32;101559.03;5022898;28;45517;-64
2023/04/30 06:12:39;;;;;;;;;34.50;30.25;;;;;13.13;51.85;101563.41;5039156;28;47662;-65
2023/04/30 06:15:05;;;;;;;;;34.25;30.75;;;;;13.14;51.85;101564.25;5025025;28;45296;-63
2023/04/30 06:17:30;;;;;;;;;42.50;35.00;;;;;13.17;51.93;101559.81;5019452;28;45468;-64
2023/04/30 06:19:59;;;;;;;;;31.00;30.00;;;;;13.20;51.90;101564.19;5018993;28;46532;-63
2023/04/30 06:22:24;;;;;;;;;33.00;30.00;;;;;13.20;52.13;101556.28;5019680;28;45379;-63
2023/04/30 06:24:50;;;;;;;;;36.75;31.50;;;;;13.25;52.10;101562.38;5024283;28;45518;-64
2023/04/30 06:27:15;;;;;;;;;36.50;32.00;;;;;13.27;52.13;101564.97;5017590;28;45399;-66
2023/04/30 06:29:40;;;;;;;;;36.25;30.50;;;;;13.30;51.90;101567.59;5032972;28;45922;-61
2023/04/30 06:32:06;;;;;;;;;34.50;32.00;;;;;13.24;52.38;101555.31;5031720;28;45357;-65
2023/04/30 06:34:31;;;;;;;;;38.50;31.50;;;;;13.32;51.98;101553.47;5028725;28;45431;-68
2023/04/30 06:36:57;;;;;;;;;34.25;30.00;;;;;13.33;52.43;101565.78;5031410;28;45230;-67
2023/04/30 06:39:22;;;;;;;;;36.75;32.75;;;;;13.30;52.27;101555.25;5029467;28;50769;-67
2023/04/30 06:41:47;;;;;;;;;36.25;31.50;;;;;13.35;52.20;101557.84;5031767;28;45381;-68
2023/04/30 06:44:13;;;;;;;;;33.25;29.25;;;;;13.36;52.39;101558.72;5039190;28;45446;-69
2023/04/30 06:46:39;;;;;;;;;40.00;32.25;;;;;13.37;52.19;101556.09;5031294;28;45297;-64
2023/04/30 06:49:05;;;;;;;;;35.25;31.25;;;;;13.40;52.37;101555.19;5032128;28;45900;-66
2023/04/30 06:51:30;;;;;;;;;41.75;32.00;;;;;13.40;52.20;101547.28;5025760;28;45367;-73
2023/04/30 06:53:55;;;;;;;;;42.25;34.00;;;;;13.41;52.18;101554.28;5037999;28;45590;-74
2023/04/30 06:56:21;;;;;;;;;36.50;32.25;;;;;13.44;52.22;101554.25;5018484;28;45442;-73
2023/04/30 06:58:46;;;;;;;;;35.50;32.75;;;;;13.38;52.52;101543.75;5020724;28;46204;-73
2023/04/30 07:01:12;;;;;;;;;37.50;33.00;;;;;13.47;52.24;101549.81;5033063;28;45459;-70
2023/04/30 07:03:37;;;;;;;;;41.25;33.75;;;;;13.51;52.57;101558.56;5009449;28;45460;-72
2023/04/30 07:06:03;;;;;;;;;43.25;35.00;;;;;13.47;52.42;101549.81;5021851;28;45369;-72
2023/04/30 07:08:28;;;;;;;;;39.00;32.75;;;;;13.48;52.51;101553.31;5021944;28;46354;-72
2023/04/30 07:10:54;;;;;;;;;42.75;34.25;;;;;13.50;52.63;101551.53;5022188;28;45317;-72
2023/04/30 07:13:19;;;;;;;;;31.75;30.50;;;;;13.53;52.32;101556.75;5003889;28;45477;-73
2023/04/30 07:15:44;;;;;;;;;37.50;32.75;;;;;13.56;52.70;101561.13;5022526;28;47140;-72
2023/04/30 07:18:10;;;;;;;;;35.25;31.00;;;;;13.58;52.71;101562.84;5021673;28;46447;-72
2023/04/30 07:20:35;;;;;;;;;43.50;33.00;;;;;13.56;52.64;101559.38;5021837;28;45258;-72
2023/04/30 07:23:01;;;;;;;;;41.00;33.75;;;;;13.61;52.52;101575.13;5004266;28;45351;-72
2023/04/30 07:25:26;;;;;;;;;44.75;35.00;;;;;13.60;52.87;101568.13;5021903;28;45238;-73
2023/04/30 07:27:52;;;;;;;;;42.25;34.25;;;;;13.63;52.50;101568.06;5021658;28;46804;-72
2023/04/30 07:30:17;;;;;;;;;44.00;33.25;;;;;13.63;52.63;101568.06;5022066;28;45301;-72
2023/04/30 07:32:43;;;;;;;;;43.25;33.50;;;;;13.64;52.49;101573.31;5021981;28;45239;-72
2023/04/30 07:35:09;;;;;;;;;39.75;34.00;;;;;13.66;52.54;101565.41;5011457;28;45574;-72
2023/04/30 07:37:35;;;;;;;;;41.00;35.00;;;;;13.70;52.30;101577.66;5040484;28;45500;-72
2023/04/30 07:40:00;;;;;;;;;43.00;34.75;;;;;13.73;52.73;101579.38;5021755;28;45254;-72
2023/04/30 07:42:25;;;;;;;;;37.25;32.75;;;;;13.68;52.86;101560.09;5050337;28;45325;-72
2023/04/30 07:44:51;;;;;;;;;40.00;32.00;;;;;13.76;52.60;101567.00;5046429;28;45761;-72
2023/04/30 07:47:20;;;;;;;;;45.50;35.25;;;;;13.80;52.75;101579.28;5021072;28;46454;-72
2023/04/30 07:49:48;;;;;;;;;39.75;34.25;;;;;13.84;52.72;101572.19;5021301;28;45408;-72
2023/04/30 07:52:14;;;;;;;;;39.25;34.50;;;;;13.86;52.72;101570.41;5035122;28;45495;-72
2023/04/30 07:54:39;;;;;;;;;43.50;34.00;;;;;13.88;52.98;101568.59;5034764;28;45348;-71
2023/04/30 07:57:08;;;;;;;;;44.25;36.00;;;;;13.88;52.54;101560.66;5003565;28;47807;-72
2023/04/30 07:59:33;;;;;;;;;39.75;34.75;;;;;13.93;52.49;101561.47;5029682;28;45605;-72
2023/04/30 08:01:58;;;;;;;;;43.25;36.00;;;;;13.97;52.87;101571.13;5039165;28;53657;-72
2023/04/30 08:04:26;;;;;;;;;41.00;34.00;;;;;14.00;52.74;101575.47;5026607;28;45349;-73
2023/04/30 08:06:51;;;;;;;;;43.00;35.00;;;;;14.01;53.12;101563.13;5009439;28;48339;-72
2023/04/30 08:09:17;;;;;;;;;40.00;34.75;;;;;14.08;52.97;101562.16;5020470;28;45180;-72
2023/04/30 08:11:45;;;;;;;;;39.50;31.25;;;;;14.11;53.20;101564.72;5020895;28;52080;-71
2023/04/30 08:14:10;;;;;;;;;43.25;36.50;;;;;14.04;52.69;101545.47;5019893;28;45564;-71
2023/04/30 08:16:36;;;;;;;;;45.00;34.50;;;;;14.15;53.06;101561.16;5022241;28;46069;-71
2023/04/30 08:19:02;;;;;;;;;44.00;36.75;;;;;14.20;53.17;101564.59;5046646;28;45341;-72
2023/04/30 08:21:28;;;;;;;;;43.25;35.75;;;;;14.23;52.60;101564.53;5021212;28;45460;-72
2023/04/30 08:23:54;;;;;;;;;43.75;34.25;;;;;14.29;52.71;101560.94;5003155;28;45683;-72
2023/04/30 08:26:20;;;;;;;;;41.50;34.00;;;;;14.34;52.84;101555.53;5002817;28;46925;-71
2023/04/30 08:28:45;;;;;;;;;41.00;33.00;;;;;14.33;52.67;101549.41;5035864;28;45314;-71
2023/04/30 08:31:14;;;;;;;;;50.00;37.75;;;;;14.42;53.30;101556.28;5031300;28;45325;-71
2023/04/30 08:33:40;;;;;;;;;38.00;32.50;;;;;14.44;53.27;101551.88;5020899;28;45503;-71
2023/04/30 08:36:05;;;;;;;;;31.25;28.75;;;;;14.52;52.91;101562.31;5017897;28;47160;-71
2023/04/30 08:38:31;;;;;;;;;40.50;34.50;;;;;14.56;53.19;101558.69;5014581;28;45392;-71
2023/04/30 08:41:11;;;;;;;;;38.75;34.50;;;;;14.57;53.13;101558.66;5020903;28;45277;-71
2023/04/30 08:43:37;;;;;;;;;41.50;36.00;;;;;14.65;53.21;101560.34;5041852;28;45404;-71
2023/04/30 08:46:04;;;;;;;;;39.75;33.50;;;;;14.67;53.12;101550.63;5007385;28;45469;-72
2023/04/30 08:48:30;;;;;;;;;39.25;33.25;;;;;14.75;53.41;101557.50;5020445;28;45353;-71
2023/04/30 08:51:00;;;;;;;;;37.00;31.75;;;;;14.82;53.25;101560.00;5023403;28;45225;-71
2023/04/30 08:53:25;;;;;;;;;38.25;31.75;;;;;14.83;52.85;101548.53;5040517;28;45333;-72
2023/04/30 08:55:50;;;;;;;;;44.75;35.50;;;;;14.92;52.92;101546.59;5024167;28;50599;-72
2023/04/30 08:58:16;;;;;;;;;49.25;37.75;;;;;14.94;53.12;101547.44;5024886;28;46400;-72
2023/04/30 09:00:41;;;;;;;;;38.00;31.00;;;;;15.04;53.43;101549.88;5032804;28;45499;-72
2023/04/30 09:03:07;;;;;;;;;40.25;34.50;;;;;15.07;53.05;101548.06;5031009;28;45253;-71
2023/04/30 09:05:32;;;;;;;;;31.50;28.50;;;;;15.14;52.80;101550.59;5019446;28;45326;-71
2023/04/30 09:07:58;;;;;;;;;35.50;30.75;;;;;15.18;53.08;101537.25;5002195;28;45312;-71
2023/04/30 09:10:23;;;;;;;;;41.75;34.50;;;;;15.22;53.09;101538.03;5020278;28;45289;-71
2023/04/30 09:13:00;;;;;;;;;42.50;35.50;;;;;15.32;52.91;101542.25;5002515;28;45431;-71
2023/04/30 09:15:25;;;;;;;;;40.25;33.00;;;;;15.37;53.22;101540.38;5020131;28;46121;-71
2023/04/30 09:18:05;;;;;;;;;31.75;28.25;;;;;15.44;52.99;101539.34;5020210;28;45178;-72
2023/04/30 09:20:30;;;;;;;;;31.50;30.00;;;;;15.52;52.91;101539.19;5019889;28;45383;-71
2023/04/30 09:23:05;;;;;;;;;41.50;34.25;;;;;15.62;52.66;101538.97;5020102;28;45326;-72
2023/04/30 09:25:39;;;;;;;;;36.25;31.25;;;;;15.69;53.00;101543.22;5009716;28;47127;-72
2023/04/30 09:28:11;;;;;;;;;32.25;25.75;;;;;15.77;52.94;101543.91;5041469;28;45475;-73
2023/04/30 09:30:38;;;;;;;;;34.25;30.75;;;;;15.85;52.95;101536.69;5040674;28;45344;-72
2023/04/30 09:33:04;;;;;;;;;31.50;31.00;;;;;15.91;52.88;101533.00;5019343;28;45365;-73
2023/04/30 09:35:34;;;;;;;;;36.00;30.00;;;;;16.02;53.32;101532.75;5019646;28;45367;-72
2023/04/30 09:38:03;;;;;;;;;31.00;27.50;;;;;16.09;52.87;101534.38;5019961;28;45338;-73
2023/04/30 09:40:40;;;;;;;;;30.00;28.50;;;;;16.16;53.03;101535.97;5041400;28;45514;-73
2023/04/30 09:43:06;;;;;;;;;33.50;29.00;;;;;16.27;52.94;101535.66;5032616;28;45422;-73
2023/04/30 09:45:39;;;;;;;;;32.25;29.00;;;;;16.35;52.49;101531.06;5034796;28;46342;-73
2023/04/30 09:48:05;;;;;;;;;27.00;19.00;;;;;16.44;52.95;101531.72;5019865;28;45313;-74
2023/04/30 09:50:39;;;;;;;;;25.25;20.50;;;;;16.53;53.06;101534.13;5001679;28;45425;-73
2023/04/30 09:53:09;;;;;;;;;31.75;25.00;;;;;16.63;52.69;101540.03;5019853;28;45329;-73
2023/04/30 09:55:36;;;;;;;;;30.00;22.75;;;;;16.72;52.66;101531.84;5020611;28;45333;-73
2023/04/30 09:58:09;;;;;;;;;27.50;25.25;;;;;16.79;52.73;101529.91;5047062;28;45289;-73
2023/04/30 10:00:37;;;;;;;;;27.75;24.25;;;;;16.87;52.78;101530.56;5030921;28;45167;-73
2023/04/30 10:03:10;;;;;;;;;22.75;19.25;;;;;16.94;52.55;101524.19;5030718;28;45473;-73
2023/04/30 10:05:40;;;;;;;;;22.00;21.50;;;;;17.02;53.07;101529.31;5019183;28;46161;-73
2023/04/30 10:08:12;;;;;;;;;22.50;20.25;;;;;17.09;52.61;101525.53;5019457;28;45263;-72
2023/04/30 10:10:41;;;;;;;;;26.50;20.75;;;;;17.19;52.37;101508.44;5019401;28;45321;-72
2023/04/30 10:13:13;;;;;;;;;21.25;16.50;;;;;17.27;52.55;101515.28;5019653;28;45173;-72
2023/04/30 10:15:44;;;;;;;;;23.25;23.25;;;;;17.31;52.57;101512.50;5004981;28;47486;-72
2023/04/30 10:18:28;;;;;;;;;21.00;21.00;;;;;17.42;52.40;101516.59;5038924;28;45236;-72
2023/04/30 10:20:54;;;;;;;;;28.75;24.75;;;;;17.52;52.29;101502.13;5019705;28;45240;-72
2023/04/30 10:23:21;;;;;;;;;21.50;18.50;;;;;17.61;52.41;101503.63;5019357;28;45532;-72
2023/04/30 10:25:47;;;;;;;;;21.50;21.50;;;;;17.70;52.18;101503.34;5019117;28;46122;-72
2023/04/30 10:28:12;;;;;;;;;21.25;20.25;;;;;17.78;52.21;101490.66;5018112;28;45346;-72
2023/04/30 10:30:39;;;;;;;;;21.25;19.75;;;;;17.83;52.36;101483.41;5039386;28;45404;-72
2023/04/30 10:33:14;;;;;;;;;18.75;18.75;;;;;17.95;52.06;101486.59;5023391;28;45339;-72
2023/04/30 10:35:52;;;;;;;;;18.00;15.00;;;;;18.02;52.10;101489.03;5022552;28;45985;-72
2023/04/30 10:38:22;;;;;;;;;20.00;18.75;;;;;18.10;52.14;101486.09;5022760;28;45326;-72
2023/04/30 10:40:48;;;;;;;;;13.75;13.75;;;;;18.15;52.03;101489.47;5023397;28;45325;-72
2023/04/30 10:43:17;;;;;;;;;19.00;19.00;;;;;18.24;51.83;101475.00;5048156;28;45442;-72
2023/04/30 10:45:43;;;;;;;;;19.50;17.50;;;;;18.35;52.18;101479.91;5022492;28;45469;-72
2023/04/30 10:48:09;;;;;;;;;20.50;20.00;;;;;18.43;52.14;101477.00;5022572;28;45246;-72
2023/04/30 10:50:45;;;;;;;;;19.50;19.50;;;;;18.50;51.80;101476.75;5022528;28;45328;-72
2023/04/30 10:53:17;;;;;;;;;16.25;15.50;;;;;18.57;51.92;101473.84;5014194;28;45506;-71
2023/04/30 10:55:53;;;;;;;;;15.50;13.75;;;;;18.63;51.53;101471.84;5044951;28;45995;-71
2023/04/30 10:58:33;;;;;;;;;16.25;15.00;;;;;18.68;51.60;101472.53;5030801;28;45499;-71
2023/04/30 11:01:00;;;;;;;;;17.50;14.00;;;;;18.74;51.67;101465.25;5031014;28;45701;-71
2023/04/30 11:03:28;;;;;;;;;14.00;13.50;;;;;18.80;51.34;101465.91;4987947;28;45346;-71
2023/04/30 11:05:54;;;;;;;;;16.75;15.25;;;;;18.87;51.02;101468.31;5022133;28;46555;-72
2023/04/30 11:08:34;;;;;;;;;18.25;16.75;;;;;18.95;51.49;101460.94;5004442;28;45471;-72
2023/04/30 11:11:04;;;;;;;;;17.75;16.25;;;;;19.02;51.44;101459.78;5022502;28;45380;-72